| DS18B20 | SHTC3 | ||||||
|---|---|---|---|---|---|---|---|
| ID | Date d/m/Y & Time | data1 สูง | data2 ต่ำ | data3 นอก | temp pcb | hum pcb | Time |
| 7741 | 01/04/2026 07:23:42 | 27.6  | 27.5  | 26.5  | 27.4  | 73.2  | 07:23 |
| 7740 | 01/04/2026 07:18:59 | 27.6  | 27.6  | 26.4  | 27.5  | 73.4  | 07:18 |
| 7739 | 01/04/2026 07:14:17 | 27.6  | 27.6  | 26.1  | 27.4  | 73.2  | 07:14 |
| 7738 | 01/04/2026 07:09:35 | 27.6  | 27.6  | 26.0  | 27.2  | 73.2  | 07:09 |
| 7737 | 01/04/2026 07:04:54 | 27.6  | 27.6  | 26.0  | 27.2  | 73.2  | 07:04 |
| 7736 | 01/04/2026 07:00:12 | 27.6  | 27.6  | 26.1  | 27.4  | 73.3  | 07:00 |
| 7735 | 01/04/2026 06:55:32 | 27.6  | 27.6  | 26.0  | 27.4  | 73.3  | 06:55 |
| 7734 | 01/04/2026 06:50:48 | 27.6  | 27.6  | 25.9  | 27.4  | 73.3  | 06:50 |
| 7733 | 01/04/2026 06:46:05 | 27.6  | 27.6  | 25.9  | 27.3  | 73.4  | 06:46 |
| 7732 | 01/04/2026 06:41:20 | 27.6  | 27.6  | 25.9  | 27.3  | 73.4  | 06:41 |
| 7731 | 01/04/2026 06:36:38 | 27.7  | 27.6  | 25.8  | 27.5  | 73.5  | 06:36 |
| 7730 | 01/04/2026 06:31:57 | 27.7  | 27.6  | 25.8  | 27.5  | 73.4  | 06:31 |
| 7729 | 01/04/2026 06:27:13 | 27.8  | 27.7  | 25.7  | 27.5  | 73.4  | 06:27 |
| 7728 | 01/04/2026 06:22:31 | 27.8  | 27.7  | 25.7  | 27.5  | 73.3  | 06:22 |
| 7727 | 01/04/2026 06:17:49 | 27.8  | 27.7  | 25.7  | 27.5  | 73.3  | 06:17 |
| 7726 | 01/04/2026 06:13:08 | 27.8  | 27.8  | 25.8  | 27.6  | 73.4  | 06:13 |
| 7725 | 01/04/2026 06:08:26 | 27.8  | 27.8  | 25.7  | 27.5  | 73.4  | 06:08 |
| 7724 | 01/04/2026 06:03:44 | 27.8  | 27.8  | 25.8  | 27.5  | 73.4  | 06:03 |
| 7723 | 01/04/2026 05:59:03 | 27.8  | 27.8  | 25.7  | 27.6  | 73.5  | 05:59 |
| 7722 | 01/04/2026 05:54:21 | 27.9  | 27.8  | 25.7  | 27.7  | 73.5  | 05:54 |
| 7721 | 01/04/2026 05:49:39 | 27.9  | 27.8  | 25.5  | 27.6  | 73.4  | 05:49 |
| 7720 | 01/04/2026 05:44:57 | 27.9  | 27.9  | 25.6  | 27.6  | 73.4  | 05:44 |
| 7719 | 01/04/2026 05:40:15 | 27.9  | 27.9  | 25.5  | 27.6  | 73.3  | 05:40 |
| 7718 | 01/04/2026 05:35:33 | 28.0  | 27.9  | 25.4  | 27.7  | 73.4  | 05:35 |